createdAt,value
2016-10-07T13:08:13.629Z,931.39
2016-10-07T13:09:24.659Z,931.44
2016-10-07T13:10:35.197Z,931.44
2016-10-07T13:11:45.728Z,931.43
2016-10-07T13:12:56.261Z,931.45
2016-10-07T13:14:06.803Z,931.44
2016-10-07T13:15:17.341Z,931.41
2016-10-07T13:16:27.880Z,931.43
2016-10-07T13:17:38.415Z,931.45
2016-10-07T13:18:48.960Z,931.41
2016-10-07T13:19:59.507Z,931.42
2016-10-07T13:21:10.065Z,931.45
2016-10-07T13:22:20.605Z,931.42
2016-10-07T13:23:31.158Z,931.41
2016-10-07T13:24:41.700Z,931.41
2016-10-07T13:25:52.228Z,931.35
2016-10-07T13:27:03.260Z,931.29
2016-10-07T13:28:13.778Z,931.36
2016-10-07T13:29:24.216Z,931.33
2016-10-07T13:30:34.658Z,931.34
2016-10-07T13:31:59.649Z,931.32
2016-10-07T13:33:10.096Z,931.27
2016-10-07T13:34:35.081Z,931.29
2016-10-07T13:35:45.526Z,931.3
2016-10-07T13:36:55.972Z,931.29
2016-10-07T13:38:06.907Z,931.3
2016-10-07T13:39:17.346Z,931.29
2016-10-07T13:40:28.050Z,931.25
2016-10-07T13:41:38.498Z,931.25
2016-10-07T13:42:48.938Z,931.26
2016-10-07T13:43:59.392Z,931.29
2016-10-07T13:45:09.837Z,931.32
2016-10-07T13:46:20.518Z,931.26
2016-10-07T13:47:31.622Z,931.25
2016-10-07T13:48:42.936Z,931.23
2016-10-07T13:49:53.259Z,931.26
2016-10-07T13:51:03.602Z,931.26
2016-10-07T13:52:14.024Z,931.31
2016-10-07T13:53:24.347Z,931.28
2016-10-07T13:54:34.683Z,931.32
2016-10-07T13:55:45.210Z,931.32
2016-10-07T13:56:55.533Z,931.3
2016-10-07T13:58:05.859Z,931.28
2016-10-07T13:59:16.202Z,931.24
2016-10-07T14:00:26.523Z,931.22
2016-10-07T14:01:37.017Z,931.25
2016-10-07T14:02:47.337Z,931.24
2016-10-07T14:03:57.960Z,931.28
2016-10-07T14:05:22.853Z,931.29
2016-10-07T14:06:33.177Z,931.31
2016-10-07T14:07:43.497Z,931.25
2016-10-07T14:08:53.831Z,931.29
2016-10-07T14:10:19.212Z,931.26
2016-10-07T14:11:44.100Z,931.29
2016-10-07T14:12:54.424Z,931.23
2016-10-07T14:14:04.744Z,931.22
2016-10-07T14:15:15.067Z,931.18
2016-10-07T14:16:39.961Z,931.14
2016-10-07T14:17:50.285Z,931.14
2016-10-07T14:19:00.603Z,931.15
2016-10-07T14:20:10.936Z,931.16
2016-10-07T14:21:21.271Z,931.13
2016-10-07T14:22:31.723Z,931.12
2016-10-07T14:23:42.166Z,931.12
2016-10-07T14:24:52.608Z,931.13
2016-10-07T14:26:03.050Z,931.15
2016-10-07T14:27:13.490Z,931.1
2016-10-07T14:28:23.931Z,931.09
2016-10-07T14:29:34.395Z,931.11
2016-10-07T14:30:46.039Z,931.21
2016-10-07T14:31:56.489Z,931.18
2016-10-07T14:33:06.939Z,931.19
2016-10-07T14:34:17.398Z,931.15
2016-10-07T14:35:27.835Z,931.14
2016-10-07T14:36:38.591Z,931.11
2016-10-07T14:37:49.038Z,931.12
2016-10-07T14:38:59.479Z,931.12
2016-10-07T14:40:09.924Z,931.1
2016-10-07T14:41:20.385Z,931.04
2016-10-07T14:42:45.371Z,931.02
2016-10-07T14:43:55.813Z,931.01
2016-10-07T14:45:20.802Z,931.02
2016-10-07T14:46:31.240Z,930.98
2016-10-07T14:47:42.187Z,930.99
2016-10-07T14:48:52.631Z,931.04
2016-10-07T14:50:03.261Z,930.97
2016-10-07T14:51:13.706Z,930.98
2016-10-07T14:52:24.636Z,931.02
2016-10-07T14:53:35.079Z,931
2016-10-07T14:54:45.521Z,931
2016-10-07T14:55:55.907Z,930.97
2016-10-07T14:57:06.229Z,931.01
2016-10-07T14:58:16.560Z,931.05
2016-10-07T14:59:27.186Z,930.97
2016-10-07T15:00:37.519Z,930.99
2016-10-07T15:01:47.853Z,930.99
2016-10-07T15:02:58.198Z,931.01
2016-10-07T15:04:09.023Z,930.95
2016-10-07T15:05:19.353Z,930.97
2016-10-07T15:06:29.676Z,930.95
2016-10-07T15:07:39.998Z,930.96
2016-10-07T15:08:50.329Z,930.95
2016-10-07T15:10:00.660Z,930.93
2016-10-07T15:11:11.458Z,930.96
2016-10-07T15:12:21.782Z,930.95
2016-10-07T15:13:33.058Z,930.91
2016-10-07T15:14:43.590Z,930.89
2016-10-07T15:15:54.682Z,930.93
2016-10-07T15:17:05.177Z,930.95
2016-10-07T15:18:15.507Z,930.92
2016-10-07T15:19:25.839Z,930.9
2016-10-07T15:20:36.171Z,930.91
2016-10-07T15:22:01.077Z,930.84
2016-10-07T15:23:11.400Z,930.86
2016-10-07T15:24:36.289Z,930.83
2016-10-07T15:25:46.626Z,930.82
2016-10-07T15:26:57.060Z,930.81
2016-10-07T15:28:07.388Z,930.74
2016-10-07T15:29:17.713Z,930.73
2016-10-07T15:30:28.038Z,930.69
2016-10-07T15:31:38.366Z,930.75
2016-10-07T15:32:48.792Z,930.75
2016-10-07T15:33:59.239Z,930.67
2016-10-07T15:35:09.562Z,930.72
2016-10-07T15:36:34.456Z,930.67
2016-10-07T15:37:44.780Z,930.65
2016-10-07T15:38:55.206Z,930.61
2016-10-07T15:40:06.008Z,930.6
2016-10-07T15:41:16.333Z,930.67
2016-10-07T15:42:26.663Z,930.62
2016-10-07T15:43:36.984Z,930.59
2016-10-07T15:44:47.797Z,930.63
2016-10-07T15:45:58.121Z,930.57
2016-10-07T15:47:08.490Z,930.64
2016-10-07T15:48:18.816Z,930.62
2016-10-07T15:49:29.159Z,930.66
2016-10-07T15:50:39.481Z,930.69
2016-10-07T15:51:49.809Z,930.66
2016-10-07T15:53:14.702Z,930.74
2016-10-07T15:54:25.029Z,930.68
2016-10-07T15:55:35.356Z,930.73
2016-10-07T15:56:45.681Z,930.67
2016-10-07T15:57:56.006Z,930.68
2016-10-07T15:59:06.333Z,930.59
2016-10-07T16:00:16.771Z,930.61
2016-10-07T16:01:41.677Z,930.58
2016-10-07T16:02:52.001Z,930.64
2016-10-07T16:04:02.338Z,930.61
2016-10-07T16:05:12.793Z,930.58
2016-10-07T16:06:23.334Z,930.6
2016-10-07T16:07:33.786Z,930.57
2016-10-07T16:08:44.228Z,930.54
2016-10-07T16:09:54.671Z,930.55
2016-10-07T16:11:05.114Z,930.49
2016-10-07T16:12:15.564Z,930.51
2016-10-07T16:13:26.005Z,930.51
2016-10-07T16:14:36.460Z,930.58
2016-10-07T16:15:46.932Z,930.54
2016-10-07T16:16:57.373Z,930.53
2016-10-07T16:18:07.817Z,930.51
2016-10-07T16:19:18.257Z,930.46
2016-10-07T16:20:28.699Z,930.46
2016-10-07T16:21:39.141Z,930.46
2016-10-07T16:22:49.583Z,930.51
2016-10-07T16:24:00.026Z,930.5
2016-10-07T16:25:10.469Z,930.42
2016-10-07T16:26:35.467Z,930.37
2016-10-07T16:28:00.570Z,930.4
2016-10-07T16:29:25.631Z,930.46
2016-10-07T16:30:36.234Z,930.38
2016-10-07T16:31:46.947Z,930.38
2016-10-07T16:32:57.481Z,930.38
2016-10-07T16:34:08.017Z,930.42
2016-10-07T16:35:33.084Z,930.39
2016-10-07T16:36:58.145Z,930.44
2016-10-07T16:38:08.933Z,930.33
2016-10-07T16:39:19.450Z,930.41
2016-10-07T16:40:29.861Z,930.31
2016-10-07T16:41:40.280Z,930.42
2016-10-07T16:42:50.695Z,930.47
2016-10-07T16:44:01.108Z,930.45
2016-10-07T16:45:11.522Z,930.4
2016-10-07T16:46:21.947Z,930.39
2016-10-07T16:47:32.362Z,930.38
2016-10-07T16:48:42.784Z,930.34
2016-10-07T16:49:53.196Z,930.34
2016-10-07T16:51:18.159Z,930.34
2016-10-07T16:52:29.562Z,930.35
2016-10-07T16:53:39.989Z,930.35
2016-10-07T16:54:50.449Z,930.37
2016-10-07T16:56:01.111Z,930.3
2016-10-07T16:57:11.520Z,930.28
2016-10-07T16:58:21.941Z,930.31
2016-10-07T16:59:32.349Z,930.3
2016-10-07T17:00:57.561Z,930.41
2016-10-07T17:02:07.980Z,930.34
2016-10-07T17:03:18.394Z,930.37
2016-10-07T17:04:29.047Z,930.41
2016-10-07T17:05:39.719Z,930.41
2016-10-07T17:06:50.142Z,930.42
2016-10-07T17:08:00.560Z,930.41
2016-10-07T17:09:11.143Z,930.39
2016-10-07T17:10:21.553Z,930.42
2016-10-07T17:12:56.932Z,930.36
2016-10-07T17:14:07.270Z,930.3
2016-10-07T17:15:17.812Z,930.35
2016-10-07T17:16:28.138Z,930.43
2016-10-07T17:17:38.463Z,930.4
2016-10-07T17:18:48.787Z,930.44
2016-10-07T17:19:59.111Z,930.51
2016-10-07T17:21:09.440Z,930.5
2016-10-07T17:22:19.760Z,930.51
2016-10-07T17:23:30.742Z,930.46
2016-10-07T17:24:41.068Z,930.52
2016-10-07T17:25:51.393Z,930.49
2016-10-07T17:27:01.727Z,930.47
2016-10-07T17:28:12.052Z,930.43
2016-10-07T17:29:22.379Z,930.36
2016-10-07T17:30:32.702Z,930.39
2016-10-07T17:31:43.026Z,930.36
2016-10-07T17:33:07.944Z,930.42
2016-10-07T17:34:19.021Z,930.41
2016-10-07T17:35:29.358Z,930.41
2016-10-07T17:36:40.180Z,930.38
2016-10-07T17:37:50.993Z,930.4
2016-10-07T17:39:02.235Z,930.35
2016-10-07T17:40:12.579Z,930.3
2016-10-07T17:41:22.938Z,930.38
2016-10-07T17:42:33.262Z,930.34
2016-10-07T17:43:43.582Z,930.39
2016-10-07T17:44:53.914Z,930.47
2016-10-07T17:46:04.240Z,930.4
2016-10-07T17:47:29.166Z,930.35
2016-10-07T17:48:54.093Z,930.4
2016-10-07T17:50:04.553Z,930.47
2016-10-07T17:51:16.166Z,930.49
2016-10-07T17:52:41.150Z,930.4
2016-10-07T17:53:51.607Z,930.42
2016-10-07T17:55:02.054Z,930.44
2016-10-07T17:56:12.560Z,930.42
2016-10-07T17:57:23.022Z,930.39
2016-10-07T17:58:34.202Z,930.4
2016-10-07T17:59:44.739Z,930.38
2016-10-07T18:00:55.408Z,930.42
2016-10-07T18:02:05.993Z,930.43
2016-10-07T18:03:17.266Z,930.4
2016-10-07T18:04:27.834Z,930.42
2016-10-07T18:05:38.381Z,930.36
2016-10-07T18:06:49.186Z,930.35
2016-10-07T18:07:59.735Z,930.37
2016-10-07T18:09:10.288Z,930.41
2016-10-07T18:10:35.368Z,930.42
2016-10-07T18:11:45.901Z,930.44
2016-10-07T18:12:56.435Z,930.42
2016-10-07T18:14:07.468Z,930.37
2016-10-07T18:15:18.004Z,930.36
2016-10-07T18:16:28.539Z,930.47
2016-10-07T18:17:39.173Z,930.44
2016-10-07T18:18:49.708Z,930.4
2016-10-07T18:20:00.240Z,930.47
2016-10-07T18:21:10.773Z,930.44
2016-10-07T18:22:35.913Z,930.5
2016-10-07T18:23:46.454Z,930.47
2016-10-07T18:24:56.987Z,930.47
2016-10-07T18:26:08.035Z,930.5
2016-10-07T18:27:18.578Z,930.5
2016-10-07T18:28:29.365Z,930.54
2016-10-07T18:29:39.903Z,930.54
2016-10-07T18:30:50.440Z,930.5
2016-10-07T18:32:15.500Z,930.51
2016-10-07T18:33:26.030Z,930.53
2016-10-07T18:34:36.573Z,930.42
2016-10-07T18:35:47.103Z,930.51
2016-10-07T18:36:57.662Z,930.55
2016-10-07T18:38:08.192Z,930.58
2016-10-07T18:39:18.976Z,930.52
2016-10-07T18:42:09.093Z,930.54
2016-10-07T18:43:19.622Z,930.51
2016-10-07T18:44:30.659Z,930.5
2016-10-07T18:45:41.193Z,930.53
2016-10-07T18:47:06.252Z,930.56
2016-10-07T18:48:16.795Z,930.58
2016-10-07T18:49:27.329Z,930.64
2016-10-07T18:50:37.871Z,930.64
2016-10-07T18:52:02.925Z,930.69
2016-10-07T18:53:13.460Z,930.68
2016-10-07T18:54:24.000Z,930.68
2016-10-07T18:55:34.532Z,930.69
2016-10-07T18:56:45.067Z,930.77
2016-10-07T18:57:55.610Z,930.71
2016-10-07T18:59:06.143Z,930.75
2016-10-07T19:00:16.685Z,930.74
2016-10-07T19:01:27.839Z,930.77
2016-10-07T19:02:38.701Z,930.76
2016-10-07T19:04:03.609Z,930.71
2016-10-07T19:05:14.054Z,930.64
2016-10-07T19:07:49.852Z,930.64
2016-10-07T19:09:00.387Z,930.67
2016-10-07T19:10:10.920Z,930.71
2016-10-07T19:11:21.708Z,930.75
2016-10-07T19:12:32.245Z,930.68
2016-10-07T19:15:08.332Z,930.65
2016-10-07T19:16:19.326Z,930.7
2016-10-07T19:17:30.425Z,930.68
2016-10-07T19:18:40.967Z,930.7
2016-10-07T19:19:52.269Z,930.68
2016-10-07T19:22:28.108Z,930.71
2016-10-07T19:23:38.637Z,930.67
2016-10-07T19:24:49.169Z,930.66
2016-10-07T19:25:59.709Z,930.65
2016-10-07T19:27:10.241Z,930.6
2016-10-07T19:28:20.779Z,930.66
2016-10-07T19:29:31.315Z,930.54
2016-10-07T19:30:41.892Z,930.68
2016-10-07T19:31:52.433Z,930.7
2016-10-07T19:33:02.981Z,930.62
2016-10-07T19:34:13.514Z,930.68
2016-10-07T19:36:49.100Z,930.64
2016-10-07T19:37:59.635Z,930.64
2016-10-07T19:39:10.943Z,930.66
2016-10-07T19:40:21.478Z,930.69
2016-10-07T19:41:32.009Z,930.68
2016-10-07T19:42:42.551Z,930.68
2016-10-07T19:43:53.336Z,930.72
2016-10-07T19:45:18.401Z,930.73
2016-10-07T19:46:28.934Z,930.68
2016-10-07T19:47:39.472Z,930.75
2016-10-07T19:48:50.007Z,930.72
2016-10-07T19:50:00.543Z,930.72
2016-10-07T19:51:11.075Z,930.74
2016-10-07T19:52:36.135Z,930.76
2016-10-07T19:53:47.202Z,930.78
2016-10-07T19:54:57.998Z,930.77
2016-10-07T19:56:08.532Z,930.77
2016-10-07T19:57:19.066Z,930.86
2016-10-07T19:58:29.599Z,930.77
2016-10-07T19:59:40.131Z,930.88
2016-10-07T20:00:50.668Z,930.82
2016-10-07T20:02:01.208Z,930.82
2016-10-07T20:03:11.741Z,930.87
2016-10-07T20:04:22.274Z,930.86
2016-10-07T20:05:47.328Z,930.85
2016-10-07T20:06:57.862Z,930.85
2016-10-07T20:08:08.392Z,930.84
2016-10-07T20:09:18.925Z,930.87
2016-10-07T20:12:09.041Z,930.89
2016-10-07T20:13:19.564Z,930.91
2016-10-07T20:14:30.010Z,930.92
2016-10-07T20:15:40.451Z,930.91
2016-10-07T20:16:50.889Z,930.93
2016-10-07T20:18:30.416Z,930.93
2016-10-07T20:19:40.857Z,931.04
2016-10-07T20:20:52.036Z,931.03
2016-10-07T20:22:02.491Z,931
2016-10-07T20:23:12.930Z,931.02
2016-10-07T20:24:37.912Z,931.01
2016-10-07T20:25:48.355Z,931.02
2016-10-07T20:26:58.791Z,931.04
2016-10-07T20:28:09.719Z,931.04
2016-10-07T20:29:20.159Z,931.06
2016-10-07T20:30:30.592Z,931.07
2016-10-07T20:31:41.037Z,931.09
2016-10-07T20:32:51.481Z,931.04
2016-10-07T20:34:01.921Z,931.12
2016-10-07T20:35:12.852Z,931.11
2016-10-07T20:36:23.298Z,931.19
2016-10-07T20:37:34.009Z,931.21
2016-10-07T20:38:44.448Z,931.16
2016-10-07T20:39:54.894Z,931.28
2016-10-07T20:41:05.334Z,931.22
